sensor_id;sensor_type;location;lat;lon;timestamp;pressure;altitude;pressure_sealevel;temperature;humidity
41712;BME280;27399;51.516;13.670;2023-08-20T00:01:43;100677.13;;;26.29;85.03
41712;BME280;27399;51.516;13.670;2023-08-20T00:04:10;100709.50;;;26.48;85.51
41712;BME280;27399;51.516;13.670;2023-08-20T00:06:36;100718.34;;;26.52;85.24
41712;BME280;27399;51.516;13.670;2023-08-20T00:09:02;100712.66;;;26.42;85.78
41712;BME280;27399;51.516;13.670;2023-08-20T00:11:29;100705.66;;;26.38;85.61
41712;BME280;27399;51.516;13.670;2023-08-20T00:13:55;100708.06;;;26.42;84.75
41712;BME280;27399;51.516;13.670;2023-08-20T00:16:20;100700.75;;;26.56;84.25
41712;BME280;27399;51.516;13.670;2023-08-20T00:18:46;100705.00;;;26.47;85.14
41712;BME280;27399;51.516;13.670;2023-08-20T00:21:14;100707.88;;;26.58;83.82
41712;BME280;27399;51.516;13.670;2023-08-20T00:23:40;100688.59;;;26.60;85.08
41712;BME280;27399;51.516;13.670;2023-08-20T00:26:05;100713.22;;;26.60;84.29
41712;BME280;27399;51.516;13.670;2023-08-20T00:28:31;100716.16;;;26.57;84.33
41712;BME280;27399;51.516;13.670;2023-08-20T00:30:59;100706.75;;;26.35;86.36
41712;BME280;27399;51.516;13.670;2023-08-20T00:33:26;100713.44;;;26.44;85.83
41712;BME280;27399;51.516;13.670;2023-08-20T00:35:51;100711.25;;;26.49;84.41
41712;BME280;27399;51.516;13.670;2023-08-20T00:38:17;100712.22;;;26.61;84.38
41712;BME280;27399;51.516;13.670;2023-08-20T00:40:42;100703.03;;;26.36;86.10
41712;BME280;27399;51.516;13.670;2023-08-20T00:43:09;100714.44;;;26.56;85.19
41712;BME280;27399;51.516;13.670;2023-08-20T00:45:34;100710.16;;;26.52;84.71
41712;BME280;27399;51.516;13.670;2023-08-20T00:48:00;100708.28;;;26.52;85.59
41712;BME280;27399;51.516;13.670;2023-08-20T00:50:26;100703.19;;;26.07;87.49
41712;BME280;27399;51.516;13.670;2023-08-20T00:52:52;100702.81;;;26.26;86.59
41712;BME280;27399;51.516;13.670;2023-08-20T00:55:18;100707.44;;;26.39;86.41
41712;BME280;27399;51.516;13.670;2023-08-20T00:57:43;100710.94;;;26.54;85.54
41712;BME280;27399;51.516;13.670;2023-08-20T01:00:10;100713.41;;;26.57;86.19
41712;BME280;27399;51.516;13.670;2023-08-20T01:02:37;100724.28;;;26.58;85.96
41712;BME280;27399;51.516;13.670;2023-08-20T01:05:03;100728.00;;;26.57;86.17
41712;BME280;27399;51.516;13.670;2023-08-20T01:12:52;100719.22;;;26.26;88.32
41712;BME280;27399;51.516;13.670;2023-08-20T01:15:18;100721.16;;;26.11;88.91
41712;BME280;27399;51.516;13.670;2023-08-20T01:17:44;100719.31;;;26.25;87.82
41712;BME280;27399;51.516;13.670;2023-08-20T01:20:11;100722.53;;;26.44;85.68
41712;BME280;27399;51.516;13.670;2023-08-20T01:23:04;100723.72;;;26.53;86.43
41712;BME280;27399;51.516;13.670;2023-08-20T01:28:32;100727.34;;;26.54;85.54
41712;BME280;27399;51.516;13.670;2023-08-20T01:31:00;100732.69;;;26.55;86.04
41712;BME280;27399;51.516;13.670;2023-08-20T01:33:26;100741.44;;;26.60;84.90
41712;BME280;27399;51.516;13.670;2023-08-20T01:35:53;100744.84;;;26.64;84.81
41712;BME280;27399;51.516;13.670;2023-08-20T01:38:20;100732.81;;;26.54;85.62
41712;BME280;27399;51.516;13.670;2023-08-20T01:40:46;100750.53;;;26.61;86.41
41712;BME280;27399;51.516;13.670;2023-08-20T01:43:12;100751.72;;;26.70;85.11
41712;BME280;27399;51.516;13.670;2023-08-20T01:45:37;100759.59;;;26.74;84.69
41712;BME280;27399;51.516;13.670;2023-08-20T01:48:03;100763.97;;;26.64;85.39
41712;BME280;27399;51.516;13.670;2023-08-20T01:50:29;100765.16;;;26.73;84.61
41712;BME280;27399;51.516;13.670;2023-08-20T01:52:55;100771.03;;;26.81;85.56
41712;BME280;27399;51.516;13.670;2023-08-20T01:55:21;100765.56;;;26.81;86.79
41712;BME280;27399;51.516;13.670;2023-08-20T01:57:46;100780.16;;;26.67;86.49
41712;BME280;27399;51.516;13.670;2023-08-20T02:00:13;100778.47;;;26.79;85.98
41712;BME280;27399;51.516;13.670;2023-08-20T02:02:38;100778.63;;;26.63;85.94
41712;BME280;27399;51.516;13.670;2023-08-20T02:05:04;100780.31;;;26.79;86.51
41712;BME280;27399;51.516;13.670;2023-08-20T02:07:29;100772.41;;;26.61;87.27
41712;BME280;27399;51.516;13.670;2023-08-20T02:09:55;100773.69;;;26.68;86.14
41712;BME280;27399;51.516;13.670;2023-08-20T02:12:21;100770.84;;;26.57;87.88
41712;BME280;27399;51.516;13.670;2023-08-20T02:14:47;100774.34;;;26.59;87.63
41712;BME280;27399;51.516;13.670;2023-08-20T02:17:12;100779.41;;;26.65;87.46
41712;BME280;27399;51.516;13.670;2023-08-20T02:19:38;100775.47;;;26.69;87.04
41712;BME280;27399;51.516;13.670;2023-08-20T02:22:04;100784.66;;;26.68;87.09
41712;BME280;27399;51.516;13.670;2023-08-20T02:24:30;100787.28;;;26.70;86.76
41712;BME280;27399;51.516;13.670;2023-08-20T02:26:56;100765.50;;;26.55;86.53
41712;BME280;27399;51.516;13.670;2023-08-20T02:29:22;100746.34;;;26.42;86.73
41712;BME280;27399;51.516;13.670;2023-08-20T02:31:47;100781.16;;;26.66;86.54
41712;BME280;27399;51.516;13.670;2023-08-20T02:34:13;100785.28;;;26.59;86.82
41712;BME280;27399;51.516;13.670;2023-08-20T02:36:39;100781.25;;;26.52;86.40
41712;BME280;27399;51.516;13.670;2023-08-20T02:39:04;100781.78;;;26.57;85.95
41712;BME280;27399;51.516;13.670;2023-08-20T02:41:34;100782.69;;;26.57;86.63
41712;BME280;27399;51.516;13.670;2023-08-20T02:44:00;100792.00;;;26.55;86.52
41712;BME280;27399;51.516;13.670;2023-08-20T02:46:26;100787.38;;;26.42;86.56
41712;BME280;27399;51.516;13.670;2023-08-20T02:48:51;100787.38;;;26.42;86.25
41712;BME280;27399;51.516;13.670;2023-08-20T02:51:17;100789.78;;;26.34;86.95
41712;BME280;27399;51.516;13.670;2023-08-20T02:53:42;100793.63;;;26.44;86.44
41712;BME280;27399;51.516;13.670;2023-08-20T02:56:08;100782.00;;;26.41;86.67
41712;BME280;27399;51.516;13.670;2023-08-20T02:58:34;100783.28;;;26.35;86.49
41712;BME280;27399;51.516;13.670;2023-08-20T03:00:59;100789.19;;;26.29;86.18
41712;BME280;27399;51.516;13.670;2023-08-20T03:03:25;100790.63;;;26.35;86.11
41712;BME280;27399;51.516;13.670;2023-08-20T03:05:51;100782.53;;;26.33;86.25
41712;BME280;27399;51.516;13.670;2023-08-20T03:08:16;100784.88;;;26.12;87.22
41712;BME280;27399;51.516;13.670;2023-08-20T03:10:42;100780.00;;;26.30;86.72
41712;BME280;27399;51.516;13.670;2023-08-20T03:13:08;100792.91;;;26.28;86.52
41712;BME280;27399;51.516;13.670;2023-08-20T03:15:33;100786.66;;;26.26;86.77
41712;BME280;27399;51.516;13.670;2023-08-20T03:17:59;100784.81;;;26.13;86.56
41712;BME280;27399;51.516;13.670;2023-08-20T03:20:25;100785.97;;;26.09;87.04
41712;BME280;27399;51.516;13.670;2023-08-20T03:22:51;100785.00;;;26.10;86.63
41712;BME280;27399;51.516;13.670;2023-08-20T03:25:17;100782.16;;;26.12;86.92
41712;BME280;27399;51.516;13.670;2023-08-20T03:27:43;100793.09;;;26.12;85.82
41712;BME280;27399;51.516;13.670;2023-08-20T03:30:09;100790.28;;;26.13;86.42
41712;BME280;27399;51.516;13.670;2023-08-20T03:32:35;100801.28;;;26.12;86.19
41712;BME280;27399;51.516;13.670;2023-08-20T03:35:01;100799.53;;;26.11;85.70
41712;BME280;27399;51.516;13.670;2023-08-20T03:37:27;100804.19;;;26.09;86.29
41712;BME280;27399;51.516;13.670;2023-08-20T03:39:52;100795.97;;;26.09;86.04
41712;BME280;27399;51.516;13.670;2023-08-20T03:42:18;100805.13;;;25.95;86.37
41712;BME280;27399;51.516;13.670;2023-08-20T03:44:44;100803.53;;;26.05;86.62
41712;BME280;27399;51.516;13.670;2023-08-20T03:47:09;100799.66;;;25.95;87.00
41712;BME280;27399;51.516;13.670;2023-08-20T03:49:35;100810.84;;;25.77;88.09
41712;BME280;27399;51.516;13.670;2023-08-20T03:52:00;100806.56;;;25.73;87.87
41712;BME280;27399;51.516;13.670;2023-08-20T03:54:28;100803.78;;;25.88;87.70
41712;BME280;27399;51.516;13.670;2023-08-20T03:56:54;100808.09;;;25.92;86.56
41712;BME280;27399;51.516;13.670;2023-08-20T03:59:20;100813.31;;;25.95;86.17
41712;BME280;27399;51.516;13.670;2023-08-20T04:01:45;100818.59;;;25.98;86.10
41712;BME280;27399;51.516;13.670;2023-08-20T04:04:11;100831.06;;;26.02;86.50
41712;BME280;27399;51.516;13.670;2023-08-20T04:06:37;100825.38;;;26.05;86.28
41712;BME280;27399;51.516;13.670;2023-08-20T04:09:02;100825.78;;;25.72;88.28
41712;BME280;27399;51.516;13.670;2023-08-20T04:11:28;100829.47;;;25.85;87.39
41712;BME280;27399;51.516;13.670;2023-08-20T04:13:54;100822.50;;;25.94;86.81
41712;BME280;27399;51.516;13.670;2023-08-20T04:16:19;100825.63;;;26.02;86.82
41712;BME280;27399;51.516;13.670;2023-08-20T04:18:45;100826.66;;;25.99;86.84
41712;BME280;27399;51.516;13.670;2023-08-20T04:21:11;100835.44;;;26.05;86.15
41712;BME280;27399;51.516;13.670;2023-08-20T04:23:36;100829.41;;;25.99;86.40
41712;BME280;27399;51.516;13.670;2023-08-20T04:26:02;100830.69;;;25.94;87.32
41712;BME280;27399;51.516;13.670;2023-08-20T04:28:27;100829.78;;;25.80;88.19
41712;BME280;27399;51.516;13.670;2023-08-20T04:30:54;100830.94;;;25.76;88.13
41712;BME280;27399;51.516;13.670;2023-08-20T04:33:20;100838.44;;;25.87;87.63
41712;BME280;27399;51.516;13.670;2023-08-20T04:35:46;100843.22;;;25.83;88.06
41712;BME280;27399;51.516;13.670;2023-08-20T04:38:12;100837.25;;;25.91;87.44
41712;BME280;27399;51.516;13.670;2023-08-20T04:40:37;100842.31;;;25.97;87.54
41712;BME280;27399;51.516;13.670;2023-08-20T04:43:03;100842.16;;;25.86;88.36
41712;BME280;27399;51.516;13.670;2023-08-20T04:45:29;100843.50;;;25.93;87.58
41712;BME280;27399;51.516;13.670;2023-08-20T04:47:54;100846.69;;;26.00;87.27
41712;BME280;27399;51.516;13.670;2023-08-20T04:50:20;100848.94;;;25.93;87.13
41712;BME280;27399;51.516;13.670;2023-08-20T04:52:46;100862.91;;;26.03;86.53
41712;BME280;27399;51.516;13.670;2023-08-20T04:55:11;100862.91;;;26.03;87.39
41712;BME280;27399;51.516;13.670;2023-08-20T04:57:37;100855.56;;;26.04;86.87
41712;BME280;27399;51.516;13.670;2023-08-20T05:00:03;100858.00;;;25.94;87.53
41712;BME280;27399;51.516;13.670;2023-08-20T05:02:29;100860.03;;;26.05;87.26
41712;BME280;27399;51.516;13.670;2023-08-20T05:04:54;100857.91;;;26.10;86.72
41712;BME280;27399;51.516;13.670;2023-08-20T05:07:20;100854.47;;;26.06;86.81
41712;BME280;27399;51.516;13.670;2023-08-20T05:09:46;100852.03;;;26.02;87.47
41712;BME280;27399;51.516;13.670;2023-08-20T05:12:12;100849.91;;;25.65;89.40
41712;BME280;27399;51.516;13.670;2023-08-20T05:14:37;100857.44;;;26.03;87.13
41712;BME280;27399;51.516;13.670;2023-08-20T05:17:03;100861.69;;;26.07;86.47
41712;BME280;27399;51.516;13.670;2023-08-20T05:19:28;100874.22;;;26.11;87.27
41712;BME280;27399;51.516;13.670;2023-08-20T05:21:54;100875.34;;;26.22;86.64
41712;BME280;27399;51.516;13.670;2023-08-20T05:24:24;100872.25;;;26.13;87.12
41712;BME280;27399;51.516;13.670;2023-08-20T05:27:10;100883.88;;;26.17;86.33
41712;BME280;27399;51.516;13.670;2023-08-20T05:29:37;100885.38;;;26.21;86.42
41712;BME280;27399;51.516;13.670;2023-08-20T05:32:03;100883.69;;;26.33;85.34
41712;BME280;27399;51.516;13.670;2023-08-20T05:34:29;100889.41;;;26.43;85.64
41712;BME280;27399;51.516;13.670;2023-08-20T05:36:54;100901.91;;;26.47;86.05
41712;BME280;27399;51.516;13.670;2023-08-20T05:39:20;100900.13;;;26.46;85.41
41712;BME280;27399;51.516;13.670;2023-08-20T05:41:45;100909.97;;;26.49;85.83
41712;BME280;27399;51.516;13.670;2023-08-20T05:44:11;100906.06;;;26.53;85.47
41712;BME280;27399;51.516;13.670;2023-08-20T05:46:36;100910.47;;;26.68;84.81
41712;BME280;27399;51.516;13.670;2023-08-20T05:49:02;100918.44;;;26.58;85.52
41712;BME280;27399;51.516;13.670;2023-08-20T05:51:28;100936.50;;;26.61;85.44
41712;BME280;27399;51.516;13.670;2023-08-20T05:53:54;100941.31;;;26.57;85.84
41712;BME280;27399;51.516;13.670;2023-08-20T05:56:19;100943.09;;;26.71;85.01
41712;BME280;27399;51.516;13.670;2023-08-20T05:58:45;100946.22;;;26.80;84.87
41712;BME280;27399;51.516;13.670;2023-08-20T06:01:11;100936.25;;;26.79;84.78
41712;BME280;27399;51.516;13.670;2023-08-20T06:03:36;100947.09;;;26.80;85.21
41712;BME280;27399;51.516;13.670;2023-08-20T06:06:02;100953.84;;;26.74;85.21
41712;BME280;27399;51.516;13.670;2023-08-20T06:08:28;100952.81;;;26.90;85.31
41712;BME280;27399;51.516;13.670;2023-08-20T06:10:53;100950.38;;;26.85;85.64
41712;BME280;27399;51.516;13.670;2023-08-20T06:13:19;100952.25;;;26.85;85.55
41712;BME280;27399;51.516;13.670;2023-08-20T06:15:45;100943.63;;;26.91;85.66
41712;BME280;27399;51.516;13.670;2023-08-20T06:18:10;100944.53;;;27.04;84.30
41712;BME280;27399;51.516;13.670;2023-08-20T06:20:36;100943.31;;;27.09;84.39
41712;BME280;27399;51.516;13.670;2023-08-20T06:23:02;100945.28;;;27.06;84.76
41712;BME280;27399;51.516;13.670;2023-08-20T06:25:27;100954.94;;;27.12;84.77
41712;BME280;27399;51.516;13.670;2023-08-20T06:27:53;100949.22;;;27.02;86.04
41712;BME280;27399;51.516;13.670;2023-08-20T06:30:19;100946.47;;;27.02;85.52
41712;BME280;27399;51.516;13.670;2023-08-20T06:32:44;100946.06;;;27.09;85.21
41712;BME280;27399;51.516;13.670;2023-08-20T06:35:10;100944.00;;;27.12;85.89
41712;BME280;27399;51.516;13.670;2023-08-20T06:37:37;100949.13;;;27.17;84.68
41712;BME280;27399;51.516;13.670;2023-08-20T06:40:03;100949.78;;;27.20;84.97
41712;BME280;27399;51.516;13.670;2023-08-20T06:42:29;100955.25;;;27.20;84.98
41712;BME280;27399;51.516;13.670;2023-08-20T06:44:55;100955.34;;;27.06;85.55
41712;BME280;27399;51.516;13.670;2023-08-20T06:47:20;100966.34;;;27.19;85.07
41712;BME280;27399;51.516;13.670;2023-08-20T06:49:46;100960.88;;;27.19;84.71
41712;BME280;27399;51.516;13.670;2023-08-20T06:52:11;100968.81;;;27.09;85.28
41712;BME280;27399;51.516;13.670;2023-08-20T06:54:37;100960.72;;;27.08;85.47
41712;BME280;27399;51.516;13.670;2023-08-20T06:57:03;100966.75;;;27.13;85.93
41712;BME280;27399;51.516;13.670;2023-08-20T06:59:28;100973.44;;;27.09;85.55
41712;BME280;27399;51.516;13.670;2023-08-20T07:01:54;100983.81;;;27.16;85.45
41712;BME280;27399;51.516;13.670;2023-08-20T07:04:19;100989.53;;;27.13;85.30
41712;BME280;27399;51.516;13.670;2023-08-20T07:06:45;100987.66;;;27.14;86.46
41712;BME280;27399;51.516;13.670;2023-08-20T07:09:11;100986.34;;;27.19;84.96
41712;BME280;27399;51.516;13.670;2023-08-20T07:11:36;100988.97;;;27.21;85.05
41712;BME280;27399;51.516;13.670;2023-08-20T07:14:02;100989.97;;;27.20;85.93
41712;BME280;27399;51.516;13.670;2023-08-20T07:16:28;100990.53;;;27.12;86.46
41712;BME280;27399;51.516;13.670;2023-08-20T07:18:53;100995.88;;;27.14;85.44
41712;BME280;27399;51.516;13.670;2023-08-20T07:21:19;101002.31;;;27.00;86.43
41712;BME280;27399;51.516;13.670;2023-08-20T07:23:44;100994.13;;;27.13;85.75
41712;BME280;27399;51.516;13.670;2023-08-20T07:26:11;100994.31;;;27.10;85.74
41712;BME280;27399;51.516;13.670;2023-08-20T07:28:40;101003.63;;;27.07;86.31
41712;BME280;27399;51.516;13.670;2023-08-20T07:31:29;100994.66;;;27.05;86.38
41712;BME280;27399;51.516;13.670;2023-08-20T07:33:56;101004.63;;;27.06;86.70
41712;BME280;27399;51.516;13.670;2023-08-20T07:36:24;101017.97;;;27.11;86.25
41712;BME280;27399;51.516;13.670;2023-08-20T07:38:51;101016.03;;;27.13;86.42
41712;BME280;27399;51.516;13.670;2023-08-20T07:41:18;101017.00;;;27.12;86.13
41712;BME280;27399;51.516;13.670;2023-08-20T07:43:45;101018.09;;;27.09;86.83
41712;BME280;27399;51.516;13.670;2023-08-20T07:46:12;101024.56;;;27.08;86.22
41712;BME280;27399;51.516;13.670;2023-08-20T07:48:38;101027.94;;;27.12;86.95
41712;BME280;27399;51.516;13.670;2023-08-20T07:51:04;101019.84;;;27.10;86.75
41712;BME280;27399;51.516;13.670;2023-08-20T07:53:30;101034.78;;;27.19;86.96
41712;BME280;27399;51.516;13.670;2023-08-20T07:55:56;101040.25;;;27.19;87.00
41712;BME280;27399;51.516;13.670;2023-08-20T07:58:22;101038.69;;;27.15;87.25
41712;BME280;27399;51.516;13.670;2023-08-20T08:00:47;101042.94;;;27.06;88.59
41712;BME280;27399;51.516;13.670;2023-08-20T08:03:13;101041.56;;;27.26;86.93
41712;BME280;27399;51.516;13.670;2023-08-20T08:05:48;101053.16;;;27.17;88.52
41712;BME280;27399;51.516;13.670;2023-08-20T08:08:18;101047.66;;;27.44;86.21
41712;BME280;27399;51.516;13.670;2023-08-20T08:10:45;101046.13;;;27.53;85.92
41712;BME280;27399;51.516;13.670;2023-08-20T08:13:15;101058.28;;;27.49;86.77
41712;BME280;27399;51.516;13.670;2023-08-20T08:15:41;101065.53;;;27.50;86.44
41712;BME280;27399;51.516;13.670;2023-08-20T08:18:07;101049.09;;;27.50;86.76
41712;BME280;27399;51.516;13.670;2023-08-20T08:20:34;101059.94;;;27.64;86.01
41712;BME280;27399;51.516;13.670;2023-08-20T08:23:00;101053.16;;;27.70;85.22
41712;BME280;27399;51.516;13.670;2023-08-20T08:25:26;101054.50;;;27.77;85.43
41712;BME280;27399;51.516;13.670;2023-08-20T08:27:52;101057.00;;;27.80;85.12
41712;BME280;27399;51.516;13.670;2023-08-20T08:30:17;101051.75;;;27.77;85.27
41712;BME280;27399;51.516;13.670;2023-08-20T08:32:43;101058.75;;;27.81;84.90
41712;BME280;27399;51.516;13.670;2023-08-20T08:35:08;101053.38;;;27.27;87.71
41712;BME280;27399;51.516;13.670;2023-08-20T08:37:34;101057.84;;;27.68;85.51
41712;BME280;27399;51.516;13.670;2023-08-20T08:40:00;101059.53;;;27.71;85.49
41712;BME280;27399;51.516;13.670;2023-08-20T08:42:26;101052.38;;;27.68;86.36
41712;BME280;27399;51.516;13.670;2023-08-20T08:44:52;101058.75;;;27.81;85.09
41712;BME280;27399;51.516;13.670;2023-08-20T08:47:21;101060.28;;;27.86;84.94
41712;BME280;27399;51.516;13.670;2023-08-20T08:49:48;101059.97;;;27.90;84.95
41712;BME280;27399;51.516;13.670;2023-08-20T08:52:14;101071.66;;;27.79;85.59
41712;BME280;27399;51.516;13.670;2023-08-20T08:54:41;101065.13;;;27.82;85.85
41712;BME280;27399;51.516;13.670;2023-08-20T08:57:07;101064.22;;;27.94;84.29
41712;BME280;27399;51.516;13.670;2023-08-20T08:59:44;101076.81;;;27.84;85.22
41712;BME280;27399;51.516;13.670;2023-08-20T09:02:10;101069.28;;;28.01;84.09
41712;BME280;27399;51.516;13.670;2023-08-20T09:04:40;101079.13;;;27.64;86.22
41712;BME280;27399;51.516;13.670;2023-08-20T09:07:11;101078.13;;;27.65;85.61
41712;BME280;27399;51.516;13.670;2023-08-20T09:09:42;101088.97;;;27.54;85.43
41712;BME280;27399;51.516;13.670;2023-08-20T09:12:19;101099.28;;;27.63;85.51
41712;BME280;27399;51.516;13.670;2023-08-20T09:14:46;101103.91;;;27.76;85.33
41712;BME280;27399;51.516;13.670;2023-08-20T09:17:13;101099.19;;;27.78;84.77
41712;BME280;27399;51.516;13.670;2023-08-20T09:19:39;101097.44;;;27.90;84.17
41712;BME280;27399;51.516;13.670;2023-08-20T09:22:05;101095.56;;;27.64;85.40
41712;BME280;27399;51.516;13.670;2023-08-20T09:24:43;101094.28;;;27.43;84.79
41712;BME280;27399;51.516;13.670;2023-08-20T09:27:10;101096.91;;;27.72;85.12
41712;BME280;27399;51.516;13.670;2023-08-20T09:29:50;101087.25;;;27.79;85.49
41712;BME280;27399;51.516;13.670;2023-08-20T09:32:18;101090.63;;;27.57;85.01
41712;BME280;27399;51.516;13.670;2023-08-20T09:34:44;101091.25;;;27.47;85.30
41712;BME280;27399;51.516;13.670;2023-08-20T09:37:12;101085.38;;;27.79;85.05
41712;BME280;27399;51.516;13.670;2023-08-20T09:39:38;101084.59;;;28.03;84.31
41712;BME280;27399;51.516;13.670;2023-08-20T09:42:08;101088.81;;;28.72;82.52
41712;BME280;27399;51.516;13.670;2023-08-20T09:44:35;101096.50;;;29.04;81.28
41712;BME280;27399;51.516;13.670;2023-08-20T09:47:03;101086.72;;;29.95;79.13
41712;BME280;27399;51.516;13.670;2023-08-20T09:49:30;101079.56;;;30.50;77.05
41712;BME280;27399;51.516;13.670;2023-08-20T09:51:59;101067.69;;;31.04;75.78
41712;BME280;27399;51.516;13.670;2023-08-20T09:54:36;101063.41;;;31.44;73.18
41712;BME280;27399;51.516;13.670;2023-08-20T09:57:07;101071.00;;;30.98;73.21
41712;BME280;27399;51.516;13.670;2023-08-20T09:59:38;101071.50;;;31.36;73.57
41712;BME280;27399;51.516;13.670;2023-08-20T10:02:04;101073.28;;;30.82;74.72
41712;BME280;27399;51.516;13.670;2023-08-20T10:04:31;101068.50;;;30.95;73.46
41712;BME280;27399;51.516;13.670;2023-08-20T10:06:58;101075.50;;;30.99;73.39
41712;BME280;27399;51.516;13.670;2023-08-20T10:09:24;101068.47;;;30.51;74.77
41712;BME280;27399;51.516;13.670;2023-08-20T10:11:50;101059.81;;;30.44;75.96
41712;BME280;27399;51.516;13.670;2023-08-20T10:14:16;101060.31;;;30.50;75.14
41712;BME280;27399;51.516;13.670;2023-08-20T10:16:42;101063.59;;;30.21;75.92
41712;BME280;27399;51.516;13.670;2023-08-20T10:19:08;101056.63;;;30.05;76.09
41712;BME280;27399;51.516;13.670;2023-08-20T10:21:33;101045.28;;;29.86;75.28
41712;BME280;27399;51.516;13.670;2023-08-20T10:24:06;101047.84;;;30.00;75.31
41712;BME280;27399;51.516;13.670;2023-08-20T10:26:33;101043.78;;;29.70;76.14
41712;BME280;27399;51.516;13.670;2023-08-20T10:29:37;101043.16;;;29.55;76.70
41712;BME280;27399;51.516;13.670;2023-08-20T10:32:12;101032.06;;;29.79;76.58
41712;BME280;27399;51.516;13.670;2023-08-20T10:34:41;101042.72;;;29.37;77.84
41712;BME280;27399;51.516;13.670;2023-08-20T10:37:12;101044.81;;;29.80;76.82
41712;BME280;27399;51.516;13.670;2023-08-20T10:39:38;101042.81;;;29.82;76.66
41712;BME280;27399;51.516;13.670;2023-08-20T10:45:00;101033.28;;;29.75;76.96
41712;BME280;27399;51.516;13.670;2023-08-20T10:47:35;101041.50;;;29.52;76.84
41712;BME280;27399;51.516;13.670;2023-08-20T10:50:02;101038.22;;;29.36;77.93
41712;BME280;27399;51.516;13.670;2023-08-20T10:52:27;101031.53;;;29.74;76.51
41712;BME280;27399;51.516;13.670;2023-08-20T10:54:55;101026.56;;;29.79;76.92
41712;BME280;27399;51.516;13.670;2023-08-20T10:57:21;101028.31;;;29.80;77.50
41712;BME280;27399;51.516;13.670;2023-08-20T10:59:57;101026.75;;;29.18;78.21
41712;BME280;27399;51.516;13.670;2023-08-20T11:02:26;101033.19;;;29.30;77.83
41712;BME280;27399;51.516;13.670;2023-08-20T11:04:53;101033.25;;;29.52;78.03
41712;BME280;27399;51.516;13.670;2023-08-20T11:07:19;101033.88;;;29.45;77.65
41712;BME280;27399;51.516;13.670;2023-08-20T11:09:45;101033.78;;;29.58;76.69
41712;BME280;27399;51.516;13.670;2023-08-20T11:12:14;101024.94;;;29.88;76.52
41712;BME280;27399;51.516;13.670;2023-08-20T11:14:40;101024.44;;;29.83;75.37
41712;BME280;27399;51.516;13.670;2023-08-20T11:17:07;101018.56;;;29.88;75.74
41712;BME280;27399;51.516;13.670;2023-08-20T11:19:33;101025.69;;;29.79;72.98
41712;BME280;27399;51.516;13.670;2023-08-20T11:21:59;101024.94;;;29.88;73.27
41712;BME280;27399;51.516;13.670;2023-08-20T11:24:29;101028.06;;;29.83;72.80
41712;BME280;27399;51.516;13.670;2023-08-20T11:26:54;101018.56;;;29.76;71.78
41712;BME280;27399;51.516;13.670;2023-08-20T11:29:25;101018.13;;;30.05;73.46
41712;BME280;27399;51.516;13.670;2023-08-20T11:31:52;101027.09;;;30.07;73.41
41712;BME280;27399;51.516;13.670;2023-08-20T11:34:20;101018.97;;;30.06;72.00
41712;BME280;27399;51.516;13.670;2023-08-20T11:36:46;101018.13;;;30.05;72.63
41712;BME280;27399;51.516;13.670;2023-08-20T11:39:13;101023.09;;;30.23;72.72
41712;BME280;27399;51.516;13.670;2023-08-20T11:41:40;101013.06;;;30.33;72.10
41712;BME280;27399;51.516;13.670;2023-08-20T11:44:07;101014.81;;;30.34;72.43
41712;BME280;27399;51.516;13.670;2023-08-20T11:46:33;101008.34;;;30.01;72.12
41712;BME280;27399;51.516;13.670;2023-08-20T11:49:13;101010.56;;;30.30;72.03
41712;BME280;27399;51.516;13.670;2023-08-20T11:51:41;101009.56;;;30.42;72.02
41712;BME280;27399;51.516;13.670;2023-08-20T11:54:11;101014.41;;;30.50;71.56
41712;BME280;27399;51.516;13.670;2023-08-20T11:56:44;101012.31;;;30.42;71.79
41712;BME280;27399;51.516;13.670;2023-08-20T11:59:11;101010.41;;;30.54;72.01
41712;BME280;27399;51.516;13.670;2023-08-20T12:01:37;101005.81;;;30.32;71.64
41712;BME280;27399;51.516;13.670;2023-08-20T12:04:05;101011.75;;;30.71;72.37
41712;BME280;27399;51.516;13.670;2023-08-20T12:06:31;101001.16;;;30.44;70.23
41712;BME280;27399;51.516;13.670;2023-08-20T12:08:57;101010.84;;;30.82;71.91
41712;BME280;27399;51.516;13.670;2023-08-20T12:11:30;101003.78;;;30.68;70.10
41712;BME280;27399;51.516;13.670;2023-08-20T12:13:56;100999.09;;;30.80;70.37
41712;BME280;27399;51.516;13.670;2023-08-20T12:16:22;101000.13;;;31.00;69.56
41712;BME280;27399;51.516;13.670;2023-08-20T12:18:49;101000.19;;;31.10;70.08
41712;BME280;27399;51.516;13.670;2023-08-20T12:21:15;100998.34;;;31.11;70.17
41712;BME280;27399;51.516;13.670;2023-08-20T12:23:43;100991.38;;;30.95;70.96
41712;BME280;27399;51.516;13.670;2023-08-20T12:26:09;100992.31;;;30.84;70.15
41712;BME280;27399;51.516;13.670;2023-08-20T12:28:35;100983.78;;;31.20;70.72
41712;BME280;27399;51.516;13.670;2023-08-20T12:31:01;100979.81;;;31.01;70.29
41712;BME280;27399;51.516;13.670;2023-08-20T12:33:26;100980.88;;;31.00;70.55
41712;BME280;27399;51.516;13.670;2023-08-20T12:35:54;100982.38;;;30.93;70.05
41712;BME280;27399;51.516;13.670;2023-08-20T12:38:20;100983.66;;;31.43;70.73
41712;BME280;27399;51.516;13.670;2023-08-20T12:40:46;100977.59;;;31.49;71.48
41712;BME280;27399;51.516;13.670;2023-08-20T12:43:11;100979.06;;;31.53;70.28
41712;BME280;27399;51.516;13.670;2023-08-20T12:45:37;100985.06;;;31.37;69.53
41712;BME280;27399;51.516;13.670;2023-08-20T12:48:04;100986.84;;;31.48;70.46
41712;BME280;27399;51.516;13.670;2023-08-20T12:50:30;100988.66;;;31.59;70.52